In Rescue
 
Open Full Screen Window  High Contrast Mode
July 25, 2021 7:27 AM CDT
Weather Information
Wind Direction
  ---
Wind Speed
  00 kt (0 mph)
Wind Gust
  00 kt (0 mph)
Altimeter
29.96 in
Visibility
10 SM
Temperature
16° C
61° F
Dewpoint
11° C
52° F
Humidity
72%
1hr Rain Fall
00.00 in.
24hr Rain Fall
00.00 in.
Sky Condition
Clear
VFR

METAR KCKN 251227Z AUTO 00000KT 10SM CLR 16/11 A2996 RMK AO2

FAA Disclaimer: The data displayed is for advisory purposes only and is not to be used for flight planning or operations.